Stillman Valley, Illinois
Current Conditions -  °F | °C
As of 1:54 AM on Monday 24 Nov 2014 (Local Time) from KRFD Reporting Station
Moderate Fog Moderate Fog  
Wind Chill: 43°   Ceiling: 300
Heat Index: 46°   Visibility: 0.5mi
Dew Point: 45°   Wind: 6mph
Humidity: 96%   Direction: 260°W
Pressure: 29.1"   Gusts: NA
Location:  42.11°N, 89.18°W
Report Text: KRFD 240754Z 26005KT 1/2SM R01/2200V2600FT FG VV003 08/07 A2910 RMK AO2 SLP854 T00780072
Loading
Personal Weather Stations






























Interactive Weather Map New forecast layout! Learn more

10-Day Weather Forecast

Advertisements
Track Severe Weather on mobile